createdAt,value
2019-05-18T00:00:08.783Z,13.52
2019-05-18T00:02:38.285Z,13.52
2019-05-18T00:05:08.043Z,13.55
2019-05-18T00:07:36.620Z,13.55
2019-05-18T00:10:06.321Z,13.60
2019-05-18T00:12:34.826Z,13.61
2019-05-18T00:15:05.056Z,13.63
2019-05-18T00:17:33.544Z,13.64
2019-05-18T00:20:02.096Z,13.68
2019-05-18T00:22:30.645Z,13.71
2019-05-18T00:24:59.164Z,13.74
2019-05-18T00:27:27.697Z,13.75
2019-05-18T00:29:56.285Z,13.77
2019-05-18T00:32:24.812Z,13.79
2019-05-18T00:34:53.297Z,13.80
2019-05-18T00:37:22.122Z,13.81
2019-05-18T00:39:50.775Z,13.82
2019-05-18T00:42:19.261Z,13.83
2019-05-18T00:44:47.772Z,13.84
2019-05-18T00:47:16.265Z,13.86
2019-05-18T00:49:44.763Z,13.86
2019-05-18T00:52:13.298Z,13.85
2019-05-18T00:54:41.879Z,13.84
2019-05-18T00:57:10.432Z,13.80
2019-05-18T00:59:39.010Z,13.77
2019-05-18T01:02:07.575Z,13.75
2019-05-18T01:04:36.057Z,13.74
2019-05-18T01:07:04.595Z,13.73
2019-05-18T01:09:33.116Z,13.70
2019-05-18T01:12:01.598Z,13.69
2019-05-18T01:14:30.150Z,13.68
2019-05-18T01:16:58.675Z,13.63
2019-05-18T01:19:27.169Z,13.61
2019-05-18T01:21:55.894Z,13.58
2019-05-18T01:24:24.385Z,13.56
2019-05-18T01:26:52.879Z,13.56
2019-05-18T01:29:21.392Z,13.55
2019-05-18T01:31:49.900Z,13.55
2019-05-18T01:34:18.403Z,13.54
2019-05-18T01:36:46.931Z,13.50
2019-05-18T01:39:15.722Z,13.48
2019-05-18T01:41:44.207Z,13.43
2019-05-18T01:44:12.736Z,13.39
2019-05-18T01:46:41.234Z,13.37
2019-05-18T01:49:09.710Z,13.33
2019-05-18T01:51:38.246Z,13.30
2019-05-18T01:54:06.751Z,13.28
2019-05-18T01:56:35.221Z,13.25
2019-05-18T01:59:03.776Z,13.25
2019-05-18T02:01:32.262Z,13.24
2019-05-18T02:04:00.801Z,13.23
2019-05-18T02:06:29.311Z,13.21
2019-05-18T02:08:57.819Z,13.17
2019-05-18T02:11:26.310Z,13.13
2019-05-18T02:13:54.849Z,13.12
2019-05-18T02:16:23.345Z,13.08
2019-05-18T02:18:51.831Z,13.05
2019-05-18T02:21:20.356Z,13.03
2019-05-18T02:23:48.909Z,13.01
2019-05-18T02:26:17.400Z,13.00
2019-05-18T02:28:46.015Z,12.99
2019-05-18T02:31:14.489Z,12.98
2019-05-18T02:33:42.981Z,13.00
2019-05-18T02:36:11.505Z,12.98
2019-05-18T02:38:39.996Z,12.98
2019-05-18T02:41:09.704Z,12.94
2019-05-18T02:43:38.233Z,12.94
2019-05-18T02:46:06.716Z,12.93
2019-05-18T02:48:48.863Z,12.94
2019-05-18T02:51:05.471Z,12.95
2019-05-18T02:53:33.992Z,12.95
2019-05-18T02:56:02.555Z,12.95
2019-05-18T02:58:31.084Z,12.93
2019-05-18T03:00:59.581Z,12.93
2019-05-18T03:03:28.162Z,12.92
2019-05-18T03:05:56.765Z,12.92
2019-05-18T03:08:25.311Z,12.91
2019-05-18T03:10:53.880Z,12.89
2019-05-18T03:13:22.477Z,12.85
2019-05-18T03:15:51.065Z,12.80
2019-05-18T03:18:19.550Z,12.77
2019-05-18T03:20:48.061Z,12.73
2019-05-18T03:23:16.562Z,12.70
2019-05-18T03:25:45.043Z,12.68
2019-05-18T03:28:13.577Z,12.65
2019-05-18T03:30:42.386Z,12.63
2019-05-18T03:33:11.017Z,12.60
2019-05-18T03:35:39.735Z,12.56
2019-05-18T03:38:08.384Z,12.49
2019-05-18T03:40:36.928Z,12.43
2019-05-18T03:43:06.544Z,12.38
2019-05-18T03:45:35.015Z,12.36
2019-05-18T03:48:03.565Z,12.34
2019-05-18T03:50:32.121Z,12.34
2019-05-18T03:53:00.673Z,12.34
2019-05-18T03:55:29.244Z,12.35
2019-05-18T03:57:59.295Z,12.36
2019-05-18T04:00:29.503Z,12.37
2019-05-18T04:02:58.358Z,12.38
2019-05-18T04:05:26.874Z,12.39
2019-05-18T04:07:55.363Z,12.39
2019-05-18T04:10:29.175Z,12.41
2019-05-18T04:12:57.771Z,12.42
2019-05-18T04:15:26.267Z,12.43
2019-05-18T04:17:54.775Z,12.46
2019-05-18T04:20:23.310Z,12.49
2019-05-18T04:22:51.789Z,12.52
2019-05-18T04:25:20.288Z,12.55
2019-05-18T04:27:48.832Z,12.58
2019-05-18T04:30:17.392Z,12.62
2019-05-18T04:32:45.877Z,12.67
2019-05-18T04:35:14.460Z,12.72
2019-05-18T04:37:42.945Z,12.78
2019-05-18T04:40:11.778Z,12.83
2019-05-18T04:42:40.319Z,12.90
2019-05-18T04:45:09.141Z,12.96
2019-05-18T04:47:37.614Z,13.04
2019-05-18T04:50:07.794Z,13.09
2019-05-18T04:52:36.372Z,13.15
2019-05-18T04:55:05.999Z,13.20
2019-05-18T04:57:34.509Z,13.26
2019-05-18T05:00:03.485Z,13.33
2019-05-18T05:02:31.964Z,13.37
2019-05-18T05:05:00.886Z,13.45
2019-05-18T05:07:29.392Z,13.52
2019-05-18T05:09:57.867Z,13.58
2019-05-18T05:12:26.398Z,13.65
2019-05-18T05:14:54.872Z,13.73
2019-05-18T05:17:23.362Z,13.81
2019-05-18T05:19:51.884Z,13.89
2019-05-18T05:22:20.369Z,13.95
2019-05-18T05:24:48.850Z,14.04
2019-05-18T05:27:17.376Z,14.12
2019-05-18T05:29:45.870Z,14.20
2019-05-18T05:32:14.345Z,14.25
2019-05-18T05:34:42.890Z,14.29
2019-05-18T05:37:11.370Z,14.34
2019-05-18T05:39:39.854Z,14.37
2019-05-18T05:42:08.405Z,14.39
2019-05-18T05:44:36.891Z,14.41
2019-05-18T05:47:05.838Z,14.45
2019-05-18T05:49:34.378Z,14.51
2019-05-18T05:52:02.864Z,14.57
2019-05-18T05:54:31.351Z,14.62
2019-05-18T05:56:59.935Z,14.69
2019-05-18T05:59:28.420Z,14.80
2019-05-18T06:01:56.908Z,14.87
2019-05-18T06:04:25.451Z,14.94
2019-05-18T06:06:53.929Z,14.99
2019-05-18T06:09:22.439Z,15.05
2019-05-18T06:11:50.945Z,15.10
2019-05-18T06:14:19.432Z,15.18
2019-05-18T06:16:47.997Z,15.26
2019-05-18T06:19:16.600Z,15.36
2019-05-18T06:21:45.090Z,15.46
2019-05-18T06:24:13.592Z,15.58
2019-05-18T06:26:42.090Z,15.70
2019-05-18T06:29:10.646Z,15.83
2019-05-18T06:31:39.151Z,15.93
2019-05-18T06:34:07.696Z,16.02
2019-05-18T06:36:36.192Z,16.08
2019-05-18T06:39:06.676Z,16.13
2019-05-18T06:41:35.265Z,16.17
2019-05-18T06:44:04.403Z,16.18
2019-05-18T06:46:33.009Z,16.23
2019-05-18T06:49:02.544Z,16.32
2019-05-18T06:51:31.025Z,16.41
2019-05-18T06:53:59.512Z,16.53
2019-05-18T06:56:28.246Z,16.64
2019-05-18T06:58:57.620Z,16.74
2019-05-18T07:01:26.099Z,16.85
2019-05-18T07:03:54.625Z,16.96
2019-05-18T07:06:23.113Z,17.07
2019-05-18T07:08:51.604Z,17.18
2019-05-18T07:11:20.192Z,17.30
2019-05-18T07:13:48.680Z,17.42
2019-05-18T07:16:17.384Z,17.55
2019-05-18T07:18:45.914Z,17.70
2019-05-18T07:21:21.969Z,17.83
2019-05-18T07:23:44.606Z,17.96
2019-05-18T07:26:13.155Z,18.08
2019-05-18T07:28:41.641Z,18.17
2019-05-18T07:31:10.505Z,18.29
2019-05-18T07:33:39.065Z,18.40
2019-05-18T07:36:07.546Z,18.52
2019-05-18T07:38:36.035Z,18.62
2019-05-18T07:41:04.548Z,18.70
2019-05-18T07:43:33.025Z,18.82
2019-05-18T07:46:01.521Z,18.95
2019-05-18T07:48:30.038Z,19.09
2019-05-18T07:50:58.718Z,19.20
2019-05-18T07:53:27.226Z,19.31
2019-05-18T07:55:55.806Z,19.45
2019-05-18T07:58:24.293Z,19.56
2019-05-18T08:00:52.790Z,19.66
2019-05-18T08:03:21.346Z,19.75
2019-05-18T08:05:49.883Z,19.82
2019-05-18T08:08:18.384Z,19.92
2019-05-18T08:10:46.937Z,20.02
2019-05-18T08:13:15.439Z,20.12
2019-05-18T08:15:43.928Z,20.22
2019-05-18T08:18:12.639Z,20.32
2019-05-18T08:20:41.169Z,20.40
2019-05-18T08:23:09.676Z,20.48
2019-05-18T08:25:38.210Z,20.56
2019-05-18T08:28:06.685Z,20.64
2019-05-18T08:30:35.161Z,20.74
2019-05-18T08:33:03.697Z,20.82
2019-05-18T08:35:32.187Z,20.90
2019-05-18T08:38:00.671Z,20.99
2019-05-18T08:40:29.206Z,21.06
2019-05-18T08:42:57.717Z,21.15
2019-05-18T08:45:26.211Z,21.23
2019-05-18T08:47:54.800Z,21.28
2019-05-18T08:50:23.293Z,21.39
2019-05-18T08:52:52.181Z,21.51
2019-05-18T08:55:20.708Z,21.59
2019-05-18T08:57:49.216Z,21.70
2019-05-18T09:00:17.779Z,21.79
2019-05-18T09:02:46.301Z,21.90
2019-05-18T09:05:15.066Z,22.06
2019-05-18T09:07:43.537Z,22.17
2019-05-18T09:10:12.229Z,22.25
2019-05-18T09:12:40.712Z,22.30
2019-05-18T09:15:09.343Z,22.38
2019-05-18T09:17:37.888Z,22.42
2019-05-18T09:20:07.308Z,22.46
2019-05-18T09:22:35.796Z,22.51
2019-05-18T09:25:06.501Z,22.56
2019-05-18T09:27:34.989Z,22.61
2019-05-18T09:30:04.368Z,22.60
2019-05-18T09:32:32.925Z,22.65
2019-05-18T09:35:01.456Z,22.73
2019-05-18T09:37:29.977Z,22.81
2019-05-18T09:39:58.526Z,22.81
2019-05-18T09:42:27.012Z,22.87
2019-05-18T09:44:55.499Z,22.91
2019-05-18T09:47:24.059Z,22.91
2019-05-18T09:49:52.544Z,22.92
2019-05-18T09:52:21.033Z,22.95
2019-05-18T09:54:50.949Z,22.96
2019-05-18T09:57:19.434Z,22.98
2019-05-18T09:59:47.915Z,23.09
2019-05-18T10:02:16.482Z,23.18
2019-05-18T10:04:45.081Z,23.26
2019-05-18T10:07:13.572Z,23.33
2019-05-18T10:09:42.112Z,23.45
2019-05-18T10:12:10.582Z,23.47
2019-05-18T10:14:39.069Z,23.51
2019-05-18T10:17:07.610Z,23.54
2019-05-18T10:19:36.121Z,23.57
2019-05-18T10:22:04.615Z,23.53
2019-05-18T10:24:33.142Z,23.55
2019-05-18T10:27:01.639Z,23.58
2019-05-18T10:29:30.128Z,23.56
2019-05-18T10:31:58.679Z,23.60
2019-05-18T10:34:27.149Z,23.61
2019-05-18T10:36:55.631Z,23.64
2019-05-18T10:39:24.188Z,23.72
2019-05-18T10:41:52.677Z,23.74
2019-05-18T10:44:21.167Z,23.82
2019-05-18T10:46:49.685Z,23.85
2019-05-18T10:49:18.169Z,23.93
2019-05-18T10:51:46.658Z,23.93
2019-05-18T10:54:15.175Z,23.87
2019-05-18T10:56:44.028Z,23.93
2019-05-18T10:59:12.508Z,24.03
2019-05-18T11:01:43.843Z,24.18
2019-05-18T11:04:11.268Z,24.31
2019-05-18T11:06:39.738Z,24.44
2019-05-18T11:09:08.306Z,24.53
2019-05-18T11:11:36.945Z,24.47
2019-05-18T11:14:05.493Z,24.34
2019-05-18T11:16:34.034Z,24.26
2019-05-18T11:19:02.521Z,24.24
2019-05-18T11:21:31.002Z,24.25
2019-05-18T11:23:59.508Z,24.21
2019-05-18T11:26:27.988Z,24.20
2019-05-18T11:28:56.491Z,24.15
2019-05-18T11:31:25.154Z,24.16
2019-05-18T11:33:53.662Z,24.18
2019-05-18T11:36:22.208Z,24.23
2019-05-18T11:38:50.762Z,24.14
2019-05-18T11:41:19.249Z,24.11
2019-05-18T11:43:47.730Z,24.17
2019-05-18T11:46:16.264Z,24.23
2019-05-18T11:48:44.744Z,24.30
2019-05-18T11:51:13.235Z,24.29
2019-05-18T11:53:41.772Z,24.41
2019-05-18T11:56:10.262Z,24.50
2019-05-18T11:58:39.818Z,24.49
2019-05-18T12:01:08.339Z,24.56
2019-05-18T12:03:36.826Z,24.66
2019-05-18T12:06:05.483Z,24.78
2019-05-18T12:08:34.019Z,24.93
2019-05-18T12:11:02.497Z,24.91
2019-05-18T12:13:30.983Z,24.88
2019-05-18T12:15:59.571Z,24.86
2019-05-18T12:18:28.050Z,24.83
2019-05-18T12:20:56.536Z,24.76
2019-05-18T12:23:25.066Z,24.66
2019-05-18T12:25:53.569Z,24.59
2019-05-18T12:28:22.066Z,24.61
2019-05-18T12:30:50.602Z,24.67
2019-05-18T12:33:19.086Z,24.79
2019-05-18T12:35:47.585Z,24.93
2019-05-18T12:38:16.093Z,25.06
2019-05-18T12:40:44.582Z,25.07
2019-05-18T12:43:13.120Z,25.14
2019-05-18T12:45:41.683Z,25.15
2019-05-18T12:48:10.237Z,25.13
2019-05-18T12:50:38.733Z,25.21
2019-05-18T12:53:07.256Z,25.20
2019-05-18T12:55:35.753Z,25.15
2019-05-18T12:58:04.236Z,25.09
2019-05-18T13:00:33.909Z,24.95
2019-05-18T13:03:02.454Z,24.79
2019-05-18T13:05:30.916Z,24.62
2019-05-18T13:07:59.451Z,24.50
2019-05-18T13:10:28.001Z,24.33
2019-05-18T13:12:56.483Z,24.14
2019-05-18T13:15:25.083Z,23.98
2019-05-18T13:17:53.570Z,23.85
2019-05-18T13:20:22.198Z,23.74
2019-05-18T13:22:50.882Z,23.59
2019-05-18T13:25:19.693Z,23.47
2019-05-18T13:27:48.245Z,23.37
2019-05-18T13:30:19.950Z,23.21
2019-05-18T13:32:47.443Z,23.13
2019-05-18T13:35:16.270Z,23.04
2019-05-18T13:37:44.802Z,23.07
2019-05-18T13:40:13.757Z,23.15
2019-05-18T13:42:42.241Z,23.26
2019-05-18T13:45:11.437Z,23.35
2019-05-18T13:47:39.930Z,23.34
2019-05-18T13:50:10.351Z,23.27
2019-05-18T13:52:38.915Z,23.17
2019-05-18T13:55:07.544Z,23.17
2019-05-18T13:57:36.240Z,23.22
2019-05-18T14:00:08.345Z,23.18
2019-05-18T14:02:37.977Z,23.16
2019-05-18T14:05:07.100Z,23.21
2019-05-18T14:07:35.697Z,23.24
2019-05-18T14:10:06.515Z,23.28
2019-05-18T14:12:35.004Z,23.35
2019-05-18T14:15:04.421Z,23.33
2019-05-18T14:17:32.898Z,23.25
2019-05-18T14:20:01.378Z,23.18
2019-05-18T14:22:29.911Z,23.12
2019-05-18T14:24:58.407Z,23.10
2019-05-18T14:27:26.926Z,23.04
2019-05-18T14:29:55.464Z,22.98
2019-05-18T14:32:23.929Z,22.94
2019-05-18T14:34:52.407Z,23.00
2019-05-18T14:37:20.944Z,22.99
2019-05-18T14:39:49.425Z,22.96
2019-05-18T14:42:17.907Z,23.04
2019-05-18T14:44:46.428Z,23.11
2019-05-18T14:47:15.075Z,23.19
2019-05-18T14:49:43.602Z,23.26
2019-05-18T14:52:12.465Z,23.33
2019-05-18T14:54:41.119Z,23.38
2019-05-18T14:57:09.593Z,23.45
2019-05-18T14:59:38.134Z,23.53
2019-05-18T15:02:06.616Z,23.61
2019-05-18T15:04:35.389Z,23.72
2019-05-18T15:07:03.980Z,23.82
2019-05-18T15:09:32.463Z,23.90
2019-05-18T15:12:00.959Z,23.93
2019-05-18T15:14:29.489Z,23.94
2019-05-18T15:16:59.588Z,23.99
2019-05-18T15:19:28.745Z,24.03
2019-05-18T15:21:57.301Z,24.02
2019-05-18T15:24:25.796Z,24.00
2019-05-18T15:26:54.311Z,23.97
2019-05-18T15:29:22.815Z,23.93
2019-05-18T15:31:51.311Z,23.87
2019-05-18T15:34:19.859Z,23.83
2019-05-18T15:36:48.357Z,23.81
2019-05-18T15:39:16.865Z,23.81
2019-05-18T15:41:45.387Z,23.81
2019-05-18T15:44:13.881Z,23.81
2019-05-18T15:46:42.362Z,23.77
2019-05-18T15:49:10.932Z,23.75
2019-05-18T15:51:39.467Z,23.74
2019-05-18T15:54:08.138Z,23.75
2019-05-18T15:56:36.665Z,23.76
2019-05-18T15:59:05.167Z,23.77
2019-05-18T16:01:33.651Z,23.77
2019-05-18T16:04:02.197Z,23.75
2019-05-18T16:06:31.876Z,23.73
2019-05-18T16:09:00.372Z,23.70
2019-05-18T16:11:29.065Z,23.70
2019-05-18T16:13:57.556Z,23.73
2019-05-18T16:16:26.036Z,23.72
2019-05-18T16:18:54.566Z,23.73
2019-05-18T16:21:23.059Z,23.72
2019-05-18T16:23:51.537Z,23.70
2019-05-18T16:26:21.924Z,23.66
2019-05-18T16:28:50.396Z,23.67
2019-05-18T16:31:18.834Z,23.75
2019-05-18T16:33:47.501Z,23.87
2019-05-18T16:36:16.015Z,24.01
2019-05-18T16:38:44.535Z,24.17
2019-05-18T16:41:13.105Z,24.33
2019-05-18T16:43:41.592Z,24.50
2019-05-18T16:46:10.075Z,24.68
2019-05-18T16:48:39.488Z,24.83
2019-05-18T16:51:08.192Z,24.92
2019-05-18T16:53:36.775Z,24.97
2019-05-18T16:56:05.363Z,25.00
2019-05-18T16:58:33.842Z,25.03
2019-05-18T17:01:02.400Z,25.03
2019-05-18T17:03:30.954Z,24.99
2019-05-18T17:05:59.443Z,24.98
2019-05-18T17:08:28.712Z,24.95
2019-05-18T17:10:57.234Z,24.87
2019-05-18T17:13:25.735Z,24.78
2019-05-18T17:15:54.207Z,24.76
2019-05-18T17:18:22.735Z,24.78
2019-05-18T17:20:51.216Z,24.79
2019-05-18T17:23:19.784Z,24.72
2019-05-18T17:25:48.330Z,24.50
2019-05-18T17:28:19.441Z,24.26
2019-05-18T17:30:47.939Z,24.00
2019-05-18T17:33:16.452Z,23.71
2019-05-18T17:35:59.414Z,23.44
2019-05-18T17:38:15.824Z,23.15
2019-05-18T17:40:45.645Z,22.86
2019-05-18T17:43:14.152Z,22.59
2019-05-18T17:45:42.651Z,22.33
2019-05-18T17:48:11.171Z,22.10
2019-05-18T17:50:39.664Z,21.89
2019-05-18T17:53:08.249Z,21.71
2019-05-18T17:55:36.969Z,21.55
2019-05-18T17:58:05.703Z,21.39
2019-05-18T18:00:34.201Z,21.25
2019-05-18T18:03:02.770Z,21.13
2019-05-18T18:05:31.288Z,21.05
2019-05-18T18:07:59.846Z,20.97
2019-05-18T18:10:28.373Z,20.90
2019-05-18T18:12:56.857Z,20.84
2019-05-18T18:15:25.411Z,20.78
2019-05-18T18:17:53.990Z,20.71
2019-05-18T18:20:22.619Z,20.66
2019-05-18T18:22:51.111Z,20.61
2019-05-18T18:25:19.757Z,20.54
2019-05-18T18:27:48.222Z,20.48
2019-05-18T18:30:17.115Z,20.42
2019-05-18T18:32:45.678Z,20.34
2019-05-18T18:35:14.315Z,20.27
2019-05-18T18:37:43.166Z,20.18
2019-05-18T18:40:13.909Z,20.08
2019-05-18T18:42:42.404Z,20.01
2019-05-18T18:45:11.140Z,19.94
2019-05-18T18:47:39.649Z,19.88
2019-05-18T18:50:09.103Z,19.78
2019-05-18T18:52:37.666Z,19.70
2019-05-18T18:55:09.297Z,19.61
2019-05-18T18:57:41.763Z,19.54
2019-05-18T19:00:08.753Z,19.47
2019-05-18T19:02:37.291Z,19.42
2019-05-18T19:05:07.498Z,19.34
2019-05-18T19:07:35.998Z,19.29
2019-05-18T19:10:05.645Z,19.21
2019-05-18T19:12:34.378Z,19.16
2019-05-18T19:15:05.153Z,19.10
2019-05-18T19:17:33.703Z,19.05
2019-05-18T19:20:02.197Z,18.98
2019-05-18T19:22:30.688Z,18.95
2019-05-18T19:24:59.217Z,18.88
2019-05-18T19:27:27.706Z,18.82
2019-05-18T19:29:56.189Z,18.75
2019-05-18T19:32:24.711Z,18.68
2019-05-18T19:34:53.229Z,18.64
2019-05-18T19:37:21.751Z,18.61
2019-05-18T19:39:50.293Z,18.54
2019-05-18T19:42:18.790Z,18.49
2019-05-18T19:44:47.315Z,18.43
2019-05-18T19:47:16.093Z,18.38
2019-05-18T19:49:44.595Z,18.31
2019-05-18T19:52:13.121Z,18.28
2019-05-18T19:54:41.748Z,18.22
2019-05-18T19:57:10.260Z,18.17
2019-05-18T19:59:38.814Z,18.12
2019-05-18T20:02:07.430Z,18.08
2019-05-18T20:04:35.909Z,18.04
2019-05-18T20:07:04.395Z,18.01
2019-05-18T20:09:32.973Z,17.98
2019-05-18T20:12:01.846Z,17.95
2019-05-18T20:14:30.369Z,17.91
2019-05-18T20:16:58.916Z,17.90
2019-05-18T20:19:38.596Z,17.86
2019-05-18T20:21:57.615Z,17.83
2019-05-18T20:24:26.160Z,17.80
2019-05-18T20:26:54.661Z,17.76
2019-05-18T20:29:23.149Z,17.73
2019-05-18T20:31:51.685Z,17.69
2019-05-18T20:34:20.180Z,17.65
2019-05-18T20:36:48.671Z,17.61
2019-05-18T20:39:17.263Z,17.59
2019-05-18T20:41:45.762Z,17.55
2019-05-18T20:44:14.247Z,17.48
2019-05-18T20:46:42.769Z,17.43
2019-05-18T20:49:11.273Z,17.37
2019-05-18T20:51:39.761Z,17.32
2019-05-18T20:54:08.364Z,17.26
2019-05-18T20:56:36.843Z,17.20
2019-05-18T20:59:05.393Z,17.13
2019-05-18T21:01:33.926Z,17.06
2019-05-18T21:04:02.429Z,16.99
2019-05-18T21:06:30.906Z,16.95
2019-05-18T21:08:59.445Z,16.88
2019-05-18T21:11:27.932Z,16.79
2019-05-18T21:13:58.309Z,16.70
2019-05-18T21:16:26.794Z,16.60
2019-05-18T21:18:55.287Z,16.52
2019-05-18T21:21:25.863Z,16.44
2019-05-18T21:23:54.088Z,16.38
2019-05-18T21:26:22.571Z,16.31
2019-05-18T21:28:56.421Z,16.25
2019-05-18T21:31:21.314Z,16.18
2019-05-18T21:33:49.982Z,16.10
2019-05-18T21:36:18.512Z,16.04
2019-05-18T21:38:46.997Z,15.98
2019-05-18T21:41:15.483Z,15.92
2019-05-18T21:43:44.024Z,15.86
2019-05-18T21:46:12.505Z,15.82
2019-05-18T21:48:40.987Z,15.80
2019-05-18T21:51:09.502Z,15.76
2019-05-18T21:53:37.997Z,15.72
2019-05-18T21:56:06.491Z,15.68
2019-05-18T21:58:35.031Z,15.62
2019-05-18T22:01:03.594Z,15.56
2019-05-18T22:03:32.123Z,15.51
2019-05-18T22:06:00.644Z,15.46
2019-05-18T22:08:29.130Z,15.43
2019-05-18T22:10:57.616Z,15.39
2019-05-18T22:13:26.313Z,15.34
2019-05-18T22:15:55.832Z,15.31
2019-05-18T22:18:25.070Z,15.29
2019-05-18T22:20:53.765Z,15.25
2019-05-18T22:23:22.244Z,15.23
2019-05-18T22:25:50.725Z,15.19
2019-05-18T22:28:19.268Z,15.17
2019-05-18T22:30:47.748Z,15.14
2019-05-18T22:33:16.229Z,15.11
2019-05-18T22:35:44.743Z,15.10
2019-05-18T22:38:13.236Z,15.07
2019-05-18T22:40:41.729Z,15.01
2019-05-18T22:43:10.281Z,14.96
2019-05-18T22:45:38.755Z,14.90
2019-05-18T22:48:07.248Z,14.84
2019-05-18T22:50:35.969Z,14.77
2019-05-18T22:53:04.421Z,14.71
2019-05-18T22:55:32.904Z,14.63
2019-05-18T22:58:01.450Z,14.59
2019-05-18T23:00:29.937Z,14.55
2019-05-18T23:02:58.413Z,14.53
2019-05-18T23:05:26.938Z,14.49
2019-05-18T23:07:55.417Z,14.46
2019-05-18T23:10:23.904Z,14.44
2019-05-18T23:12:52.449Z,14.41
2019-05-18T23:15:20.996Z,14.39
2019-05-18T23:17:49.748Z,14.37
2019-05-18T23:20:18.361Z,14.33
2019-05-18T23:22:46.859Z,14.31
2019-05-18T23:25:15.513Z,14.27
2019-05-18T23:27:44.093Z,14.25
2019-05-18T23:30:12.603Z,14.23
2019-05-18T23:32:41.081Z,14.20
2019-05-18T23:35:09.684Z,14.19
2019-05-18T23:37:38.191Z,14.15
2019-05-18T23:40:07.192Z,14.15
2019-05-18T23:42:35.707Z,14.14
2019-05-18T23:45:08.007Z,14.12
2019-05-18T23:47:36.506Z,14.10
2019-05-18T23:50:05.786Z,14.07
2019-05-18T23:52:34.268Z,14.05
2019-05-18T23:55:02.842Z,14.03
2019-05-18T23:57:31.373Z,14.01
2019-05-18T23:59:59.843Z,13.97
